Time;durP1;ratioP1;P1;durP2;ratioP2;P2;SDS_P1;SDS_P2;PMS_P1;PMS_P2;Temp;Humidity;BMP_temperature;BMP_pressure;BME280_temperature;BME280_humidity;BME280_pressure;Samples;Min_cycle;Max_cycle;Signal;HPM_P1;HPM_P2
2023/10/27 00:03:27;;;;;;;5.57;1.80;;;20.70;81.80;;;;;;10500700;28;20496;-37
2023/10/27 00:08:29;;;;;;;4.47;2.40;;;20.70;81.70;;;;;;10504461;28;20064;-33
2023/10/27 00:13:32;;;;;;;5.32;2.28;;;20.70;81.60;;;;;;10502918;28;20113;-37
2023/10/27 00:18:34;;;;;;;4.07;2.35;;;20.70;81.60;;;;;;10498851;28;20044;-45
2023/10/27 00:23:36;;;;;;;3.47;2.45;;;20.70;81.60;;;;;;10501153;28;20036;-40
2023/10/27 00:28:39;;;;;;;4.85;3.05;;;20.70;81.50;;;;;;10502454;28;20044;-42
2023/10/27 00:33:41;;;;;;;3.40;2.03;;;20.70;81.60;;;;;;10499484;28;20245;-37
2023/10/27 00:38:45;;;;;;;3.95;2.40;;;20.60;81.50;;;;;;10491206;28;20204;-36
2023/10/27 00:43:49;;;;;;;3.03;2.25;;;20.60;81.50;;;;;;10500302;28;20044;-36
2023/10/27 00:48:50;;;;;;;4.43;2.80;;;20.60;81.40;;;;;;10502714;28;20129;-32
2023/10/27 00:53:53;;;;;;;4.00;2.25;;;20.60;81.40;;;;;;10494323;28;20462;-36
2023/10/27 00:58:57;;;;;;;3.03;2.05;;;20.60;81.30;;;;;;10497761;28;20056;-37
2023/10/27 01:03:59;;;;;;;3.10;1.88;;;20.60;81.20;;;;;;10499245;28;20039;-32
2023/10/27 01:09:01;;;;;;;4.07;2.30;;;20.60;81.30;;;;;;10494368;28;20053;-31
2023/10/27 01:14:04;;;;;;;2.53;2.28;;;20.50;81.30;;;;;;10488412;28;20795;-37
2023/10/27 01:19:06;;;;;;;3.10;1.95;;;20.60;81.30;;;;;;10498102;28;20136;-46
2023/10/27 01:24:10;;;;;;;3.17;2.30;;;20.60;81.10;;;;;;10501563;28;20085;-37
2023/10/27 01:29:12;;;;;;;4.40;2.25;;;20.50;81.10;;;;;;10502826;28;20498;-39
2023/10/27 01:34:14;;;;;;;3.33;2.45;;;20.50;81.10;;;;;;10503528;28;20056;-38
2023/10/27 01:39:18;;;;;;;3.35;2.22;;;20.60;81.10;;;;;;10506796;28;20068;-32
2023/10/27 01:44:20;;;;;;;2.13;1.92;;;20.50;81.00;;;;;;10505478;28;20045;-37
2023/10/27 01:49:22;;;;;;;3.28;2.20;;;20.50;80.90;;;;;;10504949;28;20145;-45
2023/10/27 01:54:25;;;;;;;3.97;2.33;;;20.50;81.00;;;;;;10494861;28;20036;-38
2023/10/27 01:59:28;;;;;;;2.50;1.92;;;20.50;81.00;;;;;;10494977;28;20044;-33
2023/10/27 02:04:30;;;;;;;3.25;2.42;;;20.50;81.00;;;;;;10507020;28;20040;-32
2023/10/27 02:09:33;;;;;;;2.45;1.77;;;20.50;81.00;;;;;;10503575;28;20496;-37
2023/10/27 02:14:35;;;;;;;3.38;2.05;;;20.50;80.90;;;;;;10505907;28;20071;-32
2023/10/27 02:19:36;;;;;;;2.10;1.90;;;20.50;80.80;;;;;;10508511;28;20071;-41
2023/10/27 02:24:40;;;;;;;2.08;1.88;;;20.50;80.80;;;;;;10502080;28;20059;-40
2023/10/27 02:29:42;;;;;;;2.97;1.80;;;20.40;80.60;;;;;;10487493;28;20044;-32
2023/10/27 02:34:44;;;;;;;2.88;2.28;;;20.50;80.60;;;;;;10504468;28;20067;-36
2023/10/27 02:39:47;;;;;;;3.45;2.25;;;20.50;80.60;;;;;;10504773;28;20078;-31
2023/10/27 02:44:49;;;;;;;2.80;2.13;;;20.50;80.50;;;;;;10506696;28;20044;-34
2023/10/27 02:49:51;;;;;;;3.53;2.50;;;20.40;80.50;;;;;;10500310;28;20093;-35
2023/10/27 02:54:54;;;;;;;2.88;2.00;;;20.40;80.60;;;;;;10500859;28;20451;-33
2023/10/27 03:15:31;;;;;;;3.28;2.20;;;20.30;80.30;;;;;;10518394;27;20558;-39
2023/10/27 03:20:33;;;;;;;2.90;1.83;;;20.30;80.70;;;;;;10527763;28;20079;-33
2023/10/27 03:25:35;;;;;;;2.47;1.83;;;20.30;80.70;;;;;;10538952;28;20063;-30
2023/10/27 03:30:38;;;;;;;3.60;2.40;;;20.30;80.70;;;;;;10539551;28;20131;-35
2023/10/27 03:35:42;;;;;;;2.70;1.80;;;20.30;80.60;;;;;;10539375;28;20097;-42
2023/10/27 03:40:45;;;;;;;1.80;1.52;;;20.30;80.40;;;;;;10539938;28;20059;-31
2023/10/27 03:45:48;;;;;;;2.25;1.77;;;20.30;80.90;;;;;;10536593;28;20431;-37
2023/10/27 03:50:50;;;;;;;1.95;1.63;;;20.30;80.40;;;;;;10534992;28;20433;-31
2023/10/27 03:55:52;;;;;;;2.85;2.10;;;20.30;80.20;;;;;;10541483;28;20098;-37
2023/10/27 04:00:55;;;;;;;1.98;1.70;;;20.30;80.20;;;;;;10538519;28;20130;-31
2023/10/27 04:05:57;;;;;;;2.40;1.77;;;20.40;80.20;;;;;;10536352;28;20070;-31
2023/10/27 04:10:59;;;;;;;1.92;1.70;;;20.30;80.10;;;;;;10527682;28;20546;-36
2023/10/27 04:16:02;;;;;;;3.08;2.05;;;20.30;80.10;;;;;;10532828;28;20079;-32
2023/10/27 04:21:05;;;;;;;3.75;2.15;;;20.30;80.00;;;;;;10531755;28;20075;-34
2023/10/27 04:26:07;;;;;;;3.65;1.65;;;20.30;80.00;;;;;;10502526;28;20044;-32
2023/10/27 04:31:12;;;;;;;2.22;1.77;;;20.30;79.90;;;;;;10506275;28;20462;-33
2023/10/27 04:36:14;;;;;;;1.95;1.48;;;20.40;79.50;;;;;;10505866;28;20075;-38
2023/10/27 04:41:16;;;;;;;1.83;1.40;;;20.50;79.40;;;;;;10506207;28;20150;-33
2023/10/27 04:46:21;;;;;;;2.70;1.70;;;20.50;79.30;;;;;;10502099;28;20040;-31
2023/10/27 04:51:24;;;;;;;1.98;1.52;;;20.50;79.20;;;;;;10500299;28;20081;-34
2023/10/27 04:56:26;;;;;;;3.15;1.60;;;20.60;79.10;;;;;;10500541;28;20051;-39
2023/10/27 05:01:29;;;;;;;1.33;1.02;;;20.70;78.90;;;;;;10508011;28;20041;-39
2023/10/27 05:06:32;;;;;;;1.90;1.40;;;20.80;78.80;;;;;;10499384;28;20130;-31
2023/10/27 05:11:35;;;;;;;2.25;1.35;;;20.80;78.60;;;;;;10501934;28;20052;-38
2023/10/27 05:16:38;;;;;;;3.15;1.42;;;20.90;78.60;;;;;;10499125;28;20036;-35
2023/10/27 05:21:39;;;;;;;1.60;1.05;;;20.90;78.40;;;;;;10499038;28;20140;-32
2023/10/27 05:26:41;;;;;;;2.05;1.23;;;21.00;78.40;;;;;;10505574;28;20109;-33
2023/10/27 05:31:46;;;;;;;2.08;1.63;;;21.00;78.30;;;;;;10502122;28;20063;-47
2023/10/27 05:36:48;;;;;;;2.50;1.45;;;21.10;78.60;;;;;;10499717;28;20052;-33
2023/10/27 05:41:50;;;;;;;1.58;1.27;;;21.10;78.20;;;;;;10507922;28;20139;-36
2023/10/27 05:46:53;;;;;;;7.53;1.20;;;21.00;78.40;;;;;;10504387;28;20110;-42
2023/10/27 05:51:55;;;;;;;2.03;1.05;;;21.10;78.30;;;;;;10502510;28;20082;-39
2023/10/27 05:56:56;;;;;;;1.10;0.85;;;21.10;78.30;;;;;;10498923;28;20048;-34
2023/10/27 06:01:59;;;;;;;2.55;1.20;;;21.10;78.20;;;;;;10508006;28;20047;-47
2023/10/27 06:07:01;;;;;;;2.05;1.25;;;21.10;78.40;;;;;;10504379;28;20565;-35
2023/10/27 06:12:03;;;;;;;2.33;1.10;;;21.20;78.30;;;;;;10499384;28;20048;-42
2023/10/27 06:17:07;;;;;;;;;;;21.20;78.40;;;;;;10500096;28;20453;-40
2023/10/27 06:22:09;;;;;;;6.55;1.52;;;21.20;78.40;;;;;;10506110;28;19923;-36
2023/10/27 06:27:11;;;;;;;1.35;1.17;;;21.20;78.40;;;;;;10501902;28;20050;-38
2023/10/27 06:32:14;;;;;;;1.75;1.23;;;21.20;78.30;;;;;;10500210;28;20105;-34
2023/10/27 06:37:16;;;;;;;1.85;1.17;;;21.20;78.30;;;;;;10502169;28;20120;-42
2023/10/27 06:42:18;;;;;;;;;;;21.20;78.30;;;;;;10499877;28;20060;-37
2023/10/27 06:47:21;;;;;;;1.25;0.98;;;21.20;78.30;;;;;;10500744;28;19920;-37
2023/10/27 06:52:23;;;;;;;2.55;1.15;;;21.20;78.50;;;;;;10491819;28;20040;-33
2023/10/27 06:57:25;;;;;;;2.25;1.00;;;21.10;78.50;;;;;;10500445;28;20047;-37
2023/10/27 07:02:28;;;;;;;1.45;1.27;;;21.10;78.40;;;;;;10492789;28;20120;-36
2023/10/27 07:07:30;;;;;;;2.42;1.17;;;21.10;78.50;;;;;;10502467;28;20068;-36
2023/10/27 07:12:32;;;;;;;1.80;1.00;;;21.20;78.70;;;;;;10499260;28;20449;-44
2023/10/27 07:17:35;;;;;;;2.83;1.08;;;21.10;78.70;;;;;;10498642;28;20047;-38
2023/10/27 07:22:37;;;;;;;2.20;1.02;;;21.10;78.90;;;;;;10499310;28;20117;-38
2023/10/27 07:27:39;;;;;;;2.72;1.02;;;21.00;78.90;;;;;;10486129;28;20063;-37
2023/10/27 07:32:43;;;;;;;2.97;0.95;;;20.90;79.30;;;;;;10495221;28;20072;-35
2023/10/27 07:37:44;;;;;;;1.40;0.80;;;20.90;79.40;;;;;;10501140;28;20403;-31
2023/10/27 07:42:47;;;;;;;2.35;1.00;;;20.90;79.60;;;;;;10497530;28;20124;-42
2023/10/27 07:47:50;;;;;;;6.85;1.15;;;20.90;79.70;;;;;;10492766;28;20556;-38
2023/10/27 07:52:52;;;;;;;1.75;0.90;;;20.80;79.80;;;;;;10498368;28;20082;-40
2023/10/27 07:57:53;;;;;;;3.03;1.13;;;20.80;79.80;;;;;;10493082;28;20048;-31
2023/10/27 08:02:58;;;;;;;3.28;1.00;;;20.90;79.90;;;;;;10510360;28;20044;-36
2023/10/27 08:08:01;;;;;;;1.05;0.80;;;20.80;79.90;;;;;;10510273;28;20480;-34
2023/10/27 08:13:03;;;;;;;2.75;1.30;;;20.90;79.80;;;;;;10500721;28;20039;-38
2023/10/27 08:18:06;;;;;;;1.08;0.90;;;20.80;79.80;;;;;;10505117;28;20066;-39
2023/10/27 08:23:09;;;;;;;1.58;1.00;;;20.80;79.90;;;;;;10498319;28;20036;-36
2023/10/27 08:28:11;;;;;;;1.42;0.90;;;20.80;80.00;;;;;;10506079;28;20806;-38
2023/10/27 08:33:14;;;;;;;2.22;1.08;;;20.80;80.00;;;;;;10509448;28;20040;-30
2023/10/27 08:38:17;;;;;;;1.13;1.00;;;20.80;80.10;;;;;;10502014;28;20044;-30
2023/10/27 08:43:19;;;;;;;1.50;1.05;;;20.70;80.10;;;;;;10504715;28;20102;-39
2023/10/27 08:48:22;;;;;;;1.75;1.15;;;20.70;80.10;;;;;;10501884;28;20427;-36
2023/10/27 08:53:25;;;;;;;4.88;1.60;;;20.70;80.30;;;;;;10508739;28;20060;-33
2023/10/27 08:58:26;;;;;;;2.08;1.20;;;20.70;80.40;;;;;;10496158;28;20054;-35
2023/10/27 09:03:30;;;;;;;4.95;1.33;;;20.70;80.30;;;;;;10506748;28;20231;-35
2023/10/27 09:08:32;;;;;;;2.08;1.00;;;20.70;80.50;;;;;;10507276;28;20094;-34
2023/10/27 09:13:39;;;;;;;2.15;1.10;;;20.60;80.30;;;;;;10503365;28;20504;-40
2023/10/27 09:18:42;;;;;;;2.75;1.13;;;20.70;80.40;;;;;;10498261;28;20051;-41
2023/10/27 09:23:47;;;;;;;4.43;1.23;;;20.60;80.30;;;;;;10506589;28;20169;-38
2023/10/27 09:29:00;;;;;;;1.77;1.10;;;20.60;80.50;;;;;;10497062;28;20074;-39
2023/10/27 09:34:19;;;;;;;5.25;1.60;;;20.60;80.40;;;;;;10503285;28;20156;-36
2023/10/27 09:39:23;;;;;;;1.80;1.13;;;20.60;80.50;;;;;;10493669;28;20040;-40
2023/10/27 09:44:40;;;;;;;2.70;1.20;;;20.60;80.30;;;;;;10503061;28;20461;-32
2023/10/27 09:49:50;;;;;;;1.60;1.25;;;20.70;80.30;;;;;;10493947;28;20117;-35
2023/10/27 09:54:52;;;;;;;3.03;1.10;;;20.70;80.40;;;;;;10499297;28;20044;-38
2023/10/27 09:59:55;;;;;;;;;;;20.70;80.40;;;;;;10497734;28;20113;-32
2023/10/27 10:05:03;;;;;;;4.07;1.15;;;20.70;80.30;;;;;;10502349;28;19921;-30
2023/10/27 10:10:28;;;;;;;2.05;1.40;;;20.60;80.30;;;;;;10497257;28;20032;-36
2023/10/27 10:15:32;;;;;;;4.38;1.20;;;20.70;80.20;;;;;;10495972;28;20647;-37
2023/10/27 10:20:56;;;;;;;2.45;1.30;;;20.70;80.30;;;;;;10499089;28;20067;-37
2023/10/27 10:25:59;;;;;;;1.95;1.08;;;20.70;80.30;;;;;;10498023;28;20882;-34
2023/10/27 10:31:25;;;;;;;1.88;1.30;;;20.70;80.00;;;;;;10498193;28;20036;-32
2023/10/27 10:36:28;;;;;;;4.30;1.25;;;20.60;80.80;;;;;;10493161;28;20763;-31
2023/10/27 10:42:03;;;;;;;2.17;1.48;;;20.60;80.60;;;;;;10499446;28;20497;-41
2023/10/27 10:47:18;;;;;;;2.63;1.15;;;20.70;80.10;;;;;;10499855;28;20048;-37
2023/10/27 10:52:22;;;;;;;5.78;1.45;;;20.70;80.30;;;;;;10497176;28;20366;-44
2023/10/27 10:57:24;;;;;;;3.80;1.70;;;20.70;80.00;;;;;;10501430;28;20059;-51
2023/10/27 11:02:25;;;;;;;;;;;20.70;80.20;;;;;;10496810;28;20440;-30
2023/10/27 11:07:29;;;;;;;4.93;1.95;;;20.70;79.90;;;;;;10493413;28;19965;-34
2023/10/27 11:12:31;;;;;;;4.38;2.35;;;20.70;79.90;;;;;;10485023;28;20056;-37
2023/10/27 11:17:49;;;;;;;2.28;1.50;;;20.70;79.80;;;;;;10499504;28;20032;-35
2023/10/27 11:23:07;;;;;;;2.88;1.85;;;20.70;79.70;;;;;;10490067;28;20044;-33
2023/10/27 11:28:22;;;;;;;3.40;1.90;;;20.70;79.80;;;;;;10497810;28;20044;-43
2023/10/27 11:33:24;;;;;;;4.38;1.95;;;20.70;79.80;;;;;;10497902;28;20044;-37
2023/10/27 11:38:34;;;;;;;3.40;1.92;;;20.70;79.80;;;;;;10501813;28;20059;-37
2023/10/27 11:43:36;;;;;;;7.15;2.75;;;20.70;79.80;;;;;;10508905;28;20040;-38
2023/10/27 11:48:38;;;;;;;7.15;2.60;;;20.70;79.70;;;;;;10501038;28;20040;-37
2023/10/27 11:53:46;;;;;;;7.35;2.70;;;20.60;80.00;;;;;;10497993;28;20048;-37
2023/10/27 11:58:48;;;;;;;4.80;2.17;;;20.60;79.90;;;;;;10496084;28;20135;-39
2023/10/27 12:03:50;;;;;;;6.30;2.70;;;20.20;82.00;;;;;;10490769;28;20500;-35
2023/10/27 12:08:53;;;;;;;7.25;2.15;;;19.40;87.70;;;;;;10482165;28;20052;-34
2023/10/27 12:13:55;;;;;;;3.90;2.55;;;19.90;85.80;;;;;;10485518;28;20044;-37
2023/10/27 12:19:01;;;;;;;2.67;1.90;;;19.10;90.20;;;;;;10488877;28;20076;-41
2023/10/27 12:24:04;;;;;;;5.22;2.38;;;19.00;91.00;;;;;;10491136;28;20056;-38
2023/10/27 12:29:08;;;;;;;7.70;1.63;;;18.60;93.00;;;;;;10492971;28;20048;-39
2023/10/27 12:34:10;;;;;;;2.55;1.52;;;17.00;99.60;;;;;;10490204;28;20481;-34
2023/10/27 12:39:15;;;;;;;5.45;1.60;;;16.80;99.90;;;;;;10489984;28;20055;-37
2023/10/27 12:44:18;;;;;;;2.72;1.00;;;16.60;99.90;;;;;;10497689;28;20529;-40
2023/10/27 12:49:19;;;;;;;;;;;16.40;99.90;;;;;;10490171;28;20160;-31
2023/10/27 12:54:22;;;;;;;2.13;1.00;;;17.00;99.90;;;;;;10495164;28;19916;-39
2023/10/27 12:59:24;;;;;;;6.88;1.10;;;16.30;99.90;;;;;;10493858;28;20072;-29
2023/10/27 13:04:26;;;;;;;5.33;1.77;;;15.40;99.90;;;;;;10494183;28;20040;-31
2023/10/27 13:09:29;;;;;;;1.93;1.27;;;17.00;99.90;;;;;;10501565;28;20127;-44
2023/10/27 13:14:34;;;;;;;4.28;1.20;;;18.30;98.30;;;;;;10495843;28;20040;-31
2023/10/27 13:19:35;;;;;;;3.40;1.63;;;18.40;97.90;;;;;;10498719;28;20055;-34
2023/10/27 13:24:39;;;;;;;5.00;1.45;;;19.20;95.00;;;;;;10492812;28;20052;-37
2023/10/27 13:29:41;;;;;;;8.38;0.70;;;18.10;98.30;;;;;;10498869;28;20040;-44
2023/10/27 13:34:43;;;;;;;1.67;1.00;;;16.80;99.90;;;;;;10497833;28;20696;-35
2023/10/27 13:39:47;;;;;;;2.13;0.80;;;16.90;99.90;;;;;;10490656;28;20051;-36
2023/10/27 13:44:49;;;;;;;6.43;1.15;;;16.60;99.90;;;;;;10490746;28;20060;-32
2023/10/27 13:49:53;;;;;;;5.28;1.40;;;16.60;99.90;;;;;;10492633;28;20032;-33
2023/10/27 13:54:56;;;;;;;2.80;0.85;;;15.60;99.90;;;;;;10500265;28;20163;-37
2023/10/27 13:59:58;;;;;;;2.85;0.80;;;15.90;99.90;;;;;;10493178;28;20040;-34
2023/10/27 14:05:00;;;;;;;6.10;1.63;;;16.30;99.90;;;;;;10498555;28;20036;-43
2023/10/27 14:10:04;;;;;;;6.03;1.13;;;15.40;99.90;;;;;;10492758;28;20869;-35
2023/10/27 14:15:07;;;;;;;5.82;1.60;;;14.70;99.90;;;;;;10493404;28;20056;-35
2023/10/27 14:20:09;;;;;;;;;;;14.80;99.90;;;;;;10496198;28;20047;-42
2023/10/27 14:25:12;;;;;;;3.53;0.80;;;14.20;99.90;;;;;;10495100;28;19923;-35
2023/10/27 14:30:14;;;;;;;6.93;1.48;;;13.90;99.90;;;;;;10489518;28;20411;-40
2023/10/27 14:35:17;;;;;;;1.77;0.77;;;13.70;99.90;;;;;;10498245;28;20051;-31
2023/10/27 14:40:21;;;;;;;7.20;1.07;;;13.60;99.90;;;;;;10488565;28;20040;-40
2023/10/27 14:45:23;;;;;;;1.58;0.93;;;13.60;99.90;;;;;;10478016;28;20473;-34
2023/10/27 14:50:25;;;;;;;5.00;0.73;;;15.90;99.90;;;;;;10488650;28;20048;-33
2023/10/27 14:55:28;;;;;;;2.60;0.83;;;16.10;99.90;;;;;;10489812;28;20071;-37
2023/10/27 15:00:30;;;;;;;3.58;0.90;;;16.10;99.90;;;;;;10493853;28;20128;-41
2023/10/27 15:05:32;;;;;;;2.03;0.57;;;16.40;99.90;;;;;;10488767;28;20036;-43
2023/10/27 15:10:35;;;;;;;5.55;0.80;;;16.90;99.90;;;;;;10486428;28;20040;-32
2023/10/27 15:15:37;;;;;;;5.20;0.73;;;17.50;99.90;;;;;;10489661;28;20656;-33
2023/10/27 15:20:39;;;;;;;4.47;0.80;;;17.10;99.90;;;;;;10483425;28;20060;-38
2023/10/27 15:25:42;;;;;;;5.57;0.90;;;16.90;99.90;;;;;;10493144;28;20422;-40
2023/10/27 15:30:44;;;;;;;5.35;0.70;;;16.10;99.90;;;;;;10489608;28;20052;-34
2023/10/27 15:35:46;;;;;;;3.23;0.70;;;16.30;99.90;;;;;;10489071;28;20117;-30
2023/10/27 15:40:49;;;;;;;3.90;1.02;;;16.00;99.90;;;;;;10482159;28;20052;-38
2023/10/27 15:45:59;;;;;;;6.60;1.23;;;16.20;99.90;;;;;;10488918;28;20036;-34
2023/10/27 15:51:02;;;;;;;5.90;1.30;;;15.80;99.90;;;;;;10487566;28;20050;-35
2023/10/27 15:56:06;;;;;;;2.70;0.90;;;16.00;99.90;;;;;;10493786;28;20468;-34
2023/10/27 16:01:08;;;;;;;3.67;0.90;;;15.10;99.90;;;;;;10489313;28;20056;-39
2023/10/27 16:06:16;;;;;;;5.95;1.55;;;14.60;99.90;;;;;;10493191;28;20056;-42
2023/10/27 16:11:20;;;;;;;3.17;0.82;;;14.40;99.90;;;;;;10489853;28;20141;-43
2023/10/27 16:16:21;;;;;;;5.00;0.85;;;14.50;99.90;;;;;;10487351;28;20099;-37
2023/10/27 16:21:23;;;;;;;2.13;0.90;;;14.00;99.90;;;;;;10491012;28;20155;-32
2023/10/27 16:26:27;;;;;;;5.63;1.20;;;14.20;99.90;;;;;;10486094;28;20044;-41
2023/10/27 16:31:29;;;;;;;5.55;1.65;;;14.20;99.90;;;;;;10494619;28;20146;-52
2023/10/27 16:36:31;;;;;;;3.05;1.10;;;14.10;99.90;;;;;;10497148;28;20051;-36
2023/10/27 16:41:35;;;;;;;3.77;1.20;;;13.80;99.90;;;;;;10498993;28;20469;-51
2023/10/27 16:46:37;;;;;;;7.10;1.10;;;14.50;99.90;;;;;;10499879;28;20143;-42
2023/10/27 16:51:39;;;;;;;4.63;1.00;;;15.40;99.90;;;;;;10500646;28;20427;-39
2023/10/27 16:56:42;;;;;;;1.92;0.85;;;16.00;99.90;;;;;;10483860;28;20585;-27
2023/10/27 17:01:44;;;;;;;4.40;1.00;;;17.30;99.90;;;;;;10487479;28;20040;-35
2023/10/27 17:06:47;;;;;;;2.10;0.80;;;15.90;99.90;;;;;;10487387;28;20040;-35
2023/10/27 17:11:53;;;;;;;3.40;0.90;;;16.30;99.90;;;;;;10502656;28;20044;-39
2023/10/27 17:16:56;;;;;;;3.25;0.70;;;16.70;99.90;;;;;;10486104;28;20558;-32
2023/10/27 17:21:58;;;;;;;3.63;1.33;;;16.50;99.90;;;;;;10489004;28;20056;-36
2023/10/27 17:27:01;;;;;;;13.15;1.25;;;16.50;99.90;;;;;;10485081;28;20115;-40
2023/10/27 17:32:04;;;;;;;3.58;0.88;;;16.60;99.90;;;;;;10498040;28;20048;-34
2023/10/27 17:37:06;;;;;;;4.78;0.70;;;17.80;99.90;;;;;;10494289;28;20410;-39
2023/10/27 17:42:09;;;;;;;3.78;1.25;;;18.00;99.90;;;;;;10500232;28;20388;-31
2023/10/27 17:47:11;;;;;;;2.85;0.70;;;17.20;99.90;;;;;;10491507;28;20139;-36
2023/10/27 17:52:13;;;;;;;4.53;0.97;;;16.80;99.90;;;;;;10496663;28;20059;-39
2023/10/27 17:57:19;;;;;;;9.10;1.10;;;17.30;99.90;;;;;;10496543;28;20405;-31
2023/10/27 18:02:22;;;;;;;2.25;0.90;;;17.20;99.90;;;;;;10497594;28;20063;-36
2023/10/27 18:07:24;;;;;;;4.13;1.00;;;17.60;99.90;;;;;;10500594;28;20052;-34
2023/10/27 18:12:27;;;;;;;4.10;0.77;;;18.50;99.90;;;;;;10486665;28;20064;-37
2023/10/27 18:17:29;;;;;;;6.85;1.23;;;18.90;99.90;;;;;;10494107;28;20605;-38
2023/10/27 18:22:31;;;;;;;3.38;0.95;;;19.40;97.50;;;;;;10496053;28;20048;-35
2023/10/27 18:27:34;;;;;;;1.48;0.45;;;18.70;99.70;;;;;;10496853;28;20083;-34
2023/10/27 18:32:36;;;;;;;4.50;0.95;;;19.00;99.70;;;;;;10491939;28;20764;-45
2023/10/27 18:37:38;;;;;;;;;;;19.70;96.10;;;;;;10494133;28;20129;-52
2023/10/27 18:42:42;;;;;;;4.63;0.75;;;19.60;95.00;;;;;;10491676;28;20272;-34
2023/10/27 18:47:44;;;;;;;3.15;0.77;;;19.30;97.70;;;;;;10478389;28;20131;-43
2023/10/27 18:52:47;;;;;;;2.55;0.73;;;18.60;99.40;;;;;;10488067;28;20044;-31
2023/10/27 18:57:50;;;;;;;;;;;18.40;99.20;;;;;;10480178;28;20055;-36
2023/10/27 19:02:52;;;;;;;2.10;1.00;;;19.10;98.80;;;;;;10483661;28;20388;-42
2023/10/27 19:07:54;;;;;;;5.65;0.93;;;18.90;99.20;;;;;;10493915;28;20044;-40
2023/10/27 19:12:58;;;;;;;2.80;0.60;;;19.50;97.10;;;;;;10489012;28;20127;-33
2023/10/27 19:18:01;;;;;;;3.85;1.00;;;19.90;95.40;;;;;;10495873;28;20179;-55
2023/10/27 19:23:03;;;;;;;3.97;1.25;;;19.40;96.50;;;;;;10488922;28;20123;-44
2023/10/27 19:28:07;;;;;;;2.38;1.13;;;19.30;96.20;;;;;;10490741;28;20051;-32
2023/10/27 19:33:10;;;;;;;6.13;1.40;;;18.40;96.00;;;;;;10497664;28;20392;-52
2023/10/27 19:38:11;;;;;;;2.85;1.00;;;18.30;99.90;;;;;;10489135;28;20059;-32
2023/10/27 19:43:16;;;;;;;4.75;1.48;;;18.50;99.20;;;;;;10496059;28;20032;-36
2023/10/27 19:48:18;;;;;;;9.52;1.48;;;18.60;98.00;;;;;;10494648;28;20060;-34
2023/10/27 19:53:20;;;;;;;5.53;1.83;;;17.30;99.90;;;;;;10490899;28;20138;-32
2023/10/27 19:58:23;;;;;;;7.68;1.13;;;18.20;99.90;;;;;;10500334;28;20465;-32
2023/10/27 20:03:25;;;;;;;7.07;1.10;;;18.80;98.50;;;;;;10492841;28;20036;-36
2023/10/27 20:08:31;;;;;;;6.00;1.50;;;17.80;99.10;;;;;;10498104;28;20748;-49
2023/10/27 20:13:34;;;;;;;5.25;1.73;;;18.00;99.90;;;;;;10500189;28;20497;-34
2023/10/27 20:18:36;;;;;;;10.23;1.42;;;16.90;99.90;;;;;;10507876;28;20048;-34
2023/10/27 20:23:41;;;;;;;5.70;2.03;;;18.90;98.20;;;;;;10499471;28;20085;-35
2023/10/27 20:28:44;;;;;;;7.88;1.58;;;19.00;96.40;;;;;;10503536;28;20048;-39
2023/10/27 20:33:46;;;;;;;3.05;1.10;;;19.40;95.60;;;;;;10497666;28;20045;-31
2023/10/27 20:38:48;;;;;;;4.50;1.60;;;19.30;93.70;;;;;;10498923;28;20396;-40
2023/10/27 20:43:51;;;;;;;7.30;1.38;;;19.30;95.40;;;;;;10503176;28;20052;-30
2023/10/27 20:48:53;;;;;;;6.97;1.63;;;19.80;93.60;;;;;;10500946;28;20068;-37
2023/10/27 20:53:55;;;;;;;;;;;19.30;92.00;;;;;;10495540;28;20036;-35
2023/10/27 20:58:58;;;;;;;4.20;1.55;;;19.20;94.40;;;;;;10499540;28;19920;-32
2023/10/27 21:04:00;;;;;;;5.47;1.42;;;19.30;94.60;;;;;;10496639;28;20536;-33
2023/10/27 21:09:02;;;;;;;10.00;1.50;;;18.70;95.70;;;;;;10504473;28;20044;-42
2023/10/27 21:14:05;;;;;;;5.65;1.77;;;19.20;94.70;;;;;;10503799;28;20055;-39
2023/10/27 21:19:07;;;;;;;4.47;1.60;;;18.60;96.40;;;;;;10507840;28;20048;-36
2023/10/27 21:24:09;;;;;;;6.38;1.52;;;19.70;93.00;;;;;;10497915;28;20377;-41
2023/10/27 21:29:14;;;;;;;3.17;1.02;;;19.70;91.80;;;;;;10504199;28;20115;-38
2023/10/27 21:34:16;;;;;;;3.63;1.27;;;20.00;91.20;;;;;;10500779;28;20536;-35
2023/10/27 21:39:17;;;;;;;4.60;1.30;;;20.10;90.70;;;;;;10495431;28;20055;-43
2023/10/27 21:44:21;;;;;;;3.20;1.10;;;19.90;91.00;;;;;;10482586;28;20117;-31
2023/10/27 21:49:23;;;;;;;4.18;1.83;;;19.70;91.10;;;;;;10481649;28;20074;-38
2023/10/27 21:54:25;;;;;;;3.42;1.58;;;18.60;93.20;;;;;;10501502;28;20047;-32
2023/10/27 21:59:28;;;;;;;6.20;1.95;;;18.80;94.80;;;;;;10498644;28;20044;-35
2023/10/27 22:04:30;;;;;;;6.03;1.75;;;18.60;90.20;;;;;;10496772;28;20055;-42
2023/10/27 22:09:32;;;;;;;6.22;2.05;;;18.80;92.90;;;;;;10495549;28;20102;-38
2023/10/27 22:14:39;;;;;;;3.70;1.63;;;18.60;88.00;;;;;;10498290;28;20400;-38
2023/10/27 22:19:41;;;;;;;4.28;1.63;;;19.00;94.10;;;;;;10493616;28;20443;-33
2023/10/27 22:24:42;;;;;;;3.80;1.88;;;19.70;90.40;;;;;;10492982;28;20066;-36
2023/10/27 22:29:48;;;;;;;8.43;1.83;;;19.20;92.10;;;;;;10499166;28;20056;-32
2023/10/27 22:34:49;;;;;;;5.80;1.67;;;18.70;86.70;;;;;;10497710;28;20225;-35
2023/10/27 22:39:51;;;;;;;4.90;1.63;;;17.50;95.90;;;;;;10497292;28;20040;-33
2023/10/27 22:44:54;;;;;;;2.67;1.40;;;17.00;99.50;;;;;;10491362;28;20755;-32
2023/10/27 22:49:58;;;;;;;6.53;2.38;;;17.40;98.80;;;;;;10491933;28;20518;-33
2023/10/27 22:55:00;;;;;;;7.43;1.75;;;17.50;97.90;;;;;;10492813;28;20154;-37
2023/10/27 23:00:04;;;;;;;3.38;1.52;;;18.80;94.70;;;;;;10490726;28;20048;-41
2023/10/27 23:05:06;;;;;;;4.03;1.40;;;19.40;91.90;;;;;;10494790;28;20056;-38
2023/10/27 23:10:09;;;;;;;;;;;19.60;90.80;;;;;;10494641;28;20609;-35
2023/10/27 23:15:13;;;;;;;;;;;19.80;90.10;;;;;;10482924;28;19926;-39
2023/10/27 23:20:16;;;;;;;4.88;1.23;;;19.70;90.00;;;;;;10488141;28;19920;-38
2023/10/27 23:25:19;;;;;;;2.75;1.30;;;19.70;89.70;;;;;;10488762;28;20074;-34
2023/10/27 23:30:22;;;;;;;1.98;1.23;;;19.60;90.00;;;;;;10500012;28;20041;-39
2023/10/27 23:35:24;;;;;;;4.55;2.40;;;19.20;90.80;;;;;;10503333;28;20136;-33
2023/10/27 23:40:26;;;;;;;1.90;1.27;;;19.30;90.20;;;;;;10506712;28;20048;-39
2023/10/27 23:45:29;;;;;;;3.60;1.55;;;19.10;90.60;;;;;;10501036;28;20068;-33
2023/10/27 23:50:31;;;;;;;3.42;1.00;;;19.50;90.40;;;;;;10504469;28;20044;-32
2023/10/27 23:55:32;;;;;;;2.78;1.38;;;19.40;90.00;;;;;;10502704;28;20126;-44
